CheckWX is a tool to help pilots better visualize weather data.  It is not intended as a substitute for an official pre-flight weather briefing.

19:14:34 UTC

FEFF METAR
Bangui M'Poko International Airport
Bangui, Central African Republic
Current

1 hour ago

FEFF 261800Z 00000KT 8000 FEW010 FEW033CB 26/23 Q1009 TEMPO TS
Observed
May-26 @ 18:00 UTC
Visibility
7,998 meters
Flight Rules
MVFR
Cloud Levels
  • Few at 1,000' AGL
  • Few at 3,300' AGL
Temperature
26°C / 79°F
Dewpoint
23°C / 73°F
Humidity
84%
Altimeter
29.79" Hg
Pressure
1008.92 hPa
Previous

2 hours ago

FEFF 261700Z VRB02KT 9999 SCT013 FEW040CB 27/23 Q1008 TEMPO 07015G35KT TSRA BKN010 FEW033CB
Observed
May-26 @ 17:00 UTC
Wind
  • Variable at 2 KTS
Visibility
10,000+ meters
Flight Rules
VFR
Cloud Levels
  • Scattered at 1,300' AGL
  • Few at 4,000' AGL
Temperature
27°C / 81°F
Dewpoint
23°C / 73°F
Heat Index
30°C / 86°F
Humidity
79%
Altimeter
29.76" Hg
Pressure
1007.92 hPa
Previous

3 hours ago

FEFF 261600Z 29003KT 9999 SCT020 FEW040CB 27/21 Q1008 TEMPO 07015G35KT TSRA BKN010 FEW033CB
Observed
May-26 @ 16:00 UTC
Wind
  • 290° at 3 KTS
Visibility
10,000+ meters
Flight Rules
VFR
Cloud Levels
  • Scattered at 2,000' AGL
  • Few at 4,000' AGL
Temperature
27°C / 81°F
Dewpoint
21°C / 70°F
Heat Index
29°C / 85°F
Humidity
70%
Altimeter
29.76" Hg
Pressure
1007.92 hPa